sensor_id;sensor_type;location;lat;lon;timestamp;P1;durP1;ratioP1;P2;durP2;ratioP2
50569;SDS011;36525;49.398;7.614;2023-03-13T13:00:17;4.03;;;0.50;;
50569;SDS011;36525;49.398;7.614;2023-03-13T13:06:59;2.33;;;0.57;;
50569;SDS011;36525;49.398;7.614;2023-03-13T13:09:32;1.30;;;0.40;;
50569;SDS011;36525;49.398;7.614;2023-03-13T13:12:02;1.33;;;0.50;;
50569;SDS011;36525;49.398;7.614;2023-03-13T13:19:57;1.67;;;0.40;;
50569;SDS011;36525;49.398;7.614;2023-03-13T13:32:46;1.63;;;0.40;;
50569;SDS011;36525;49.398;7.614;2023-03-13T13:41:03;1.20;;;0.40;;
50569;SDS011;36525;49.398;7.614;2023-03-13T13:43:41;1.70;;;0.40;;
50569;SDS011;36525;49.398;7.614;2023-03-13T13:46:29;1.20;;;0.32;;
50569;SDS011;36525;49.398;7.614;2023-03-13T13:51:33;1.13;;;0.40;;
50569;SDS011;36525;49.398;7.614;2023-03-13T14:14:27;3.33;;;1.08;;
50569;SDS011;36525;49.398;7.614;2023-03-13T14:16:55;6.45;;;1.70;;
50569;SDS011;36525;49.398;7.614;2023-03-13T14:19:24;3.60;;;1.02;;
50569;SDS011;36525;49.398;7.614;2023-03-13T14:22:06;3.20;;;0.90;;
50569;SDS011;36525;49.398;7.614;2023-03-13T14:24:36;2.55;;;0.90;;
50569;SDS011;36525;49.398;7.614;2023-03-13T14:27:17;2.13;;;0.80;;
50569;SDS011;36525;49.398;7.614;2023-03-13T14:30:04;2.30;;;0.80;;
50569;SDS011;36525;49.398;7.614;2023-03-13T14:32:36;2.75;;;0.82;;
50569;SDS011;36525;49.398;7.614;2023-03-13T14:35:04;2.33;;;0.90;;
50569;SDS011;36525;49.398;7.614;2023-03-13T14:37:41;3.72;;;0.70;;
50569;SDS011;36525;49.398;7.614;2023-03-13T14:40:25;2.08;;;0.90;;
50569;SDS011;36525;49.398;7.614;2023-03-13T14:45:33;5.70;;;0.75;;
50569;SDS011;36525;49.398;7.614;2023-03-13T14:48:03;3.90;;;0.80;;
50569;SDS011;36525;49.398;7.614;2023-03-13T14:50:42;2.58;;;0.90;;
50569;SDS011;36525;49.398;7.614;2023-03-13T14:54:26;3.17;;;1.13;;
50569;SDS011;36525;49.398;7.614;2023-03-13T14:57:03;2.03;;;0.60;;
50569;SDS011;36525;49.398;7.614;2023-03-13T14:59:53;3.78;;;0.80;;
50569;SDS011;36525;49.398;7.614;2023-03-13T15:02:22;2.33;;;0.68;;
50569;SDS011;36525;49.398;7.614;2023-03-13T15:05:01;4.20;;;0.77;;
50569;SDS011;36525;49.398;7.614;2023-03-13T15:12:50;1.67;;;0.85;;
50569;SDS011;36525;49.398;7.614;2023-03-13T15:15:18;1.48;;;0.50;;
50569;SDS011;36525;49.398;7.614;2023-03-13T15:17:45;2.00;;;0.60;;
50569;SDS011;36525;49.398;7.614;2023-03-13T15:20:12;3.45;;;0.50;;
50569;SDS011;36525;49.398;7.614;2023-03-13T15:22:42;4.03;;;0.82;;
50569;SDS011;36525;49.398;7.614;2023-03-13T15:25:16;4.03;;;0.90;;
50569;SDS011;36525;49.398;7.614;2023-03-13T15:27:49;1.75;;;0.60;;
50569;SDS011;36525;49.398;7.614;2023-03-13T15:30:20;1.50;;;0.70;;
50569;SDS011;36525;49.398;7.614;2023-03-13T15:32:50;5.18;;;0.70;;
50569;SDS011;36525;49.398;7.614;2023-03-13T15:35:23;5.53;;;0.98;;
50569;SDS011;36525;49.398;7.614;2023-03-13T15:37:56;3.53;;;0.90;;
50569;SDS011;36525;49.398;7.614;2023-03-13T15:40:26;3.58;;;0.98;;
50569;SDS011;36525;49.398;7.614;2023-03-13T15:42:53;4.30;;;0.70;;
50569;SDS011;36525;49.398;7.614;2023-03-13T15:45:21;9.10;;;1.25;;
50569;SDS011;36525;49.398;7.614;2023-03-13T15:47:48;2.53;;;0.85;;
50569;SDS011;36525;49.398;7.614;2023-03-13T15:50:16;5.63;;;1.90;;
50569;SDS011;36525;49.398;7.614;2023-03-13T15:52:47;6.38;;;3.00;;
50569;SDS011;36525;49.398;7.614;2023-03-13T15:55:14;4.88;;;1.33;;
50569;SDS011;36525;49.398;7.614;2023-03-13T15:57:43;3.47;;;1.00;;
50569;SDS011;36525;49.398;7.614;2023-03-13T16:00:25;8.63;;;0.90;;
50569;SDS011;36525;49.398;7.614;2023-03-13T16:02:52;1.92;;;0.85;;
50569;SDS011;36525;49.398;7.614;2023-03-13T16:05:19;3.20;;;0.82;;
50569;SDS011;36525;49.398;7.614;2023-03-13T16:07:47;3.10;;;1.05;;
50569;SDS011;36525;49.398;7.614;2023-03-13T16:10:17;4.55;;;0.90;;
50569;SDS011;36525;49.398;7.614;2023-03-13T16:12:51;4.72;;;1.75;;
50569;SDS011;36525;49.398;7.614;2023-03-13T16:15:20;3.58;;;1.30;;
50569;SDS011;36525;49.398;7.614;2023-03-13T16:17:47;6.70;;;1.20;;
50569;SDS011;36525;49.398;7.614;2023-03-13T16:20:18;2.80;;;0.80;;
50569;SDS011;36525;49.398;7.614;2023-03-13T16:22:47;3.58;;;0.80;;
50569;SDS011;36525;49.398;7.614;2023-03-13T16:25:18;5.30;;;1.50;;
50569;SDS011;36525;49.398;7.614;2023-03-13T16:27:45;2.70;;;1.02;;
50569;SDS011;36525;49.398;7.614;2023-03-13T16:30:14;5.32;;;1.00;;
50569;SDS011;36525;49.398;7.614;2023-03-13T16:32:54;2.97;;;0.98;;
50569;SDS011;36525;49.398;7.614;2023-03-13T16:35:22;4.18;;;1.00;;
50569;SDS011;36525;49.398;7.614;2023-03-13T16:37:52;6.95;;;1.58;;
50569;SDS011;36525;49.398;7.614;2023-03-13T16:40:22;2.42;;;1.02;;
50569;SDS011;36525;49.398;7.614;2023-03-13T16:42:58;4.47;;;1.05;;
50569;SDS011;36525;49.398;7.614;2023-03-13T16:45:26;10.48;;;1.40;;
50569;SDS011;36525;49.398;7.614;2023-03-13T16:47:53;4.80;;;1.27;;
50569;SDS011;36525;49.398;7.614;2023-03-13T16:52:51;5.50;;;1.30;;
50569;SDS011;36525;49.398;7.614;2023-03-13T16:55:20;3.72;;;1.20;;
50569;SDS011;36525;49.398;7.614;2023-03-13T16:57:54;7.18;;;1.45;;
50569;SDS011;36525;49.398;7.614;2023-03-13T17:00:22;3.53;;;1.40;;
50569;SDS011;36525;49.398;7.614;2023-03-13T17:02:52;4.40;;;1.27;;
50569;SDS011;36525;49.398;7.614;2023-03-13T17:05:20;4.38;;;1.58;;
50569;SDS011;36525;49.398;7.614;2023-03-13T17:07:48;2.78;;;1.15;;
50569;SDS011;36525;49.398;7.614;2023-03-13T17:12:50;4.72;;;1.40;;
50569;SDS011;36525;49.398;7.614;2023-03-13T17:15:17;3.28;;;1.33;;
50569;SDS011;36525;49.398;7.614;2023-03-13T17:17:48;3.90;;;1.20;;
50569;SDS011;36525;49.398;7.614;2023-03-13T17:20:18;4.68;;;1.58;;
50569;SDS011;36525;49.398;7.614;2023-03-13T17:22:49;4.38;;;1.58;;
50569;SDS011;36525;49.398;7.614;2023-03-13T17:25:16;13.50;;;2.28;;
50569;SDS011;36525;49.398;7.614;2023-03-13T17:27:45;7.07;;;1.67;;
50569;SDS011;36525;49.398;7.614;2023-03-13T17:30:27;6.35;;;1.88;;
50569;SDS011;36525;49.398;7.614;2023-03-13T17:32:56;8.85;;;1.75;;
50569;SDS011;36525;49.398;7.614;2023-03-13T17:35:24;3.75;;;1.55;;
50569;SDS011;36525;49.398;7.614;2023-03-13T17:37:51;5.82;;;1.83;;
50569;SDS011;36525;49.398;7.614;2023-03-13T17:40:19;6.38;;;2.28;;
50569;SDS011;36525;49.398;7.614;2023-03-13T17:42:49;6.20;;;2.67;;
50569;SDS011;36525;49.398;7.614;2023-03-13T17:45:16;6.28;;;2.00;;
50569;SDS011;36525;49.398;7.614;2023-03-13T17:47:44;7.00;;;1.85;;
50569;SDS011;36525;49.398;7.614;2023-03-13T17:50:19;6.15;;;2.08;;
50569;SDS011;36525;49.398;7.614;2023-03-13T17:52:52;4.00;;;1.60;;
50569;SDS011;36525;49.398;7.614;2023-03-13T17:55:20;4.68;;;2.20;;
50569;SDS011;36525;49.398;7.614;2023-03-13T17:57:47;4.07;;;1.83;;
50569;SDS011;36525;49.398;7.614;2023-03-13T18:00:19;5.15;;;1.73;;
50569;SDS011;36525;49.398;7.614;2023-03-13T18:02:54;4.13;;;1.73;;
50569;SDS011;36525;49.398;7.614;2023-03-13T18:05:22;3.95;;;1.60;;
50569;SDS011;36525;49.398;7.614;2023-03-13T18:07:51;5.72;;;2.17;;
50569;SDS011;36525;49.398;7.614;2023-03-13T18:10:25;5.45;;;2.80;;
50569;SDS011;36525;49.398;7.614;2023-03-13T18:15:23;6.47;;;3.00;;
50569;SDS011;36525;49.398;7.614;2023-03-13T18:17:53;2.90;;;1.60;;
50569;SDS011;36525;49.398;7.614;2023-03-13T18:20:27;4.20;;;1.40;;
50569;SDS011;36525;49.398;7.614;2023-03-13T18:22:56;3.60;;;1.17;;
50569;SDS011;36525;49.398;7.614;2023-03-13T18:25:26;6.97;;;1.65;;
50569;SDS011;36525;49.398;7.614;2023-03-13T18:27:54;3.53;;;1.45;;
50569;SDS011;36525;49.398;7.614;2023-03-13T18:30:22;5.18;;;1.73;;
50569;SDS011;36525;49.398;7.614;2023-03-13T18:32:50;3.78;;;1.83;;
50569;SDS011;36525;49.398;7.614;2023-03-13T18:35:18;3.60;;;1.20;;
50569;SDS011;36525;49.398;7.614;2023-03-13T18:37:45;3.92;;;0.90;;
50569;SDS011;36525;49.398;7.614;2023-03-13T18:40:18;4.07;;;1.10;;
50569;SDS011;36525;49.398;7.614;2023-03-13T18:42:48;2.95;;;0.82;;
50569;SDS011;36525;49.398;7.614;2023-03-13T18:45:17;2.13;;;0.90;;
50569;SDS011;36525;49.398;7.614;2023-03-13T18:47:46;2.45;;;0.82;;
50569;SDS011;36525;49.398;7.614;2023-03-13T18:50:19;2.08;;;0.60;;
50569;SDS011;36525;49.398;7.614;2023-03-13T18:52:56;1.90;;;0.57;;
50569;SDS011;36525;49.398;7.614;2023-03-13T18:55:26;3.95;;;0.60;;
50569;SDS011;36525;49.398;7.614;2023-03-13T18:57:55;1.73;;;0.70;;
50569;SDS011;36525;49.398;7.614;2023-03-13T19:00:24;1.40;;;0.52;;
50569;SDS011;36525;49.398;7.614;2023-03-13T19:02:54;1.73;;;0.57;;
50569;SDS011;36525;49.398;7.614;2023-03-13T19:05:22;2.03;;;0.50;;
50569;SDS011;36525;49.398;7.614;2023-03-13T19:07:49;1.33;;;0.60;;
50569;SDS011;36525;49.398;7.614;2023-03-13T19:10:18;1.52;;;0.60;;
50569;SDS011;36525;49.398;7.614;2023-03-13T19:12:47;1.08;;;0.60;;
50569;SDS011;36525;49.398;7.614;2023-03-13T19:15:14;1.88;;;0.50;;
50569;SDS011;36525;49.398;7.614;2023-03-13T19:17:41;2.42;;;0.82;;
50569;SDS011;36525;49.398;7.614;2023-03-13T19:20:13;1.08;;;0.55;;
50569;SDS011;36525;49.398;7.614;2023-03-13T19:22:43;3.60;;;0.80;;
50569;SDS011;36525;49.398;7.614;2023-03-13T19:25:11;1.60;;;0.70;;
50569;SDS011;36525;49.398;7.614;2023-03-13T19:27:41;1.98;;;0.60;;
50569;SDS011;36525;49.398;7.614;2023-03-13T19:30:13;2.10;;;0.80;;
50569;SDS011;36525;49.398;7.614;2023-03-13T19:32:44;2.15;;;0.80;;
50569;SDS011;36525;49.398;7.614;2023-03-13T19:35:11;2.75;;;0.77;;
50569;SDS011;36525;49.398;7.614;2023-03-13T19:37:42;2.50;;;0.90;;
50569;SDS011;36525;49.398;7.614;2023-03-13T19:40:19;2.60;;;0.50;;
50569;SDS011;36525;49.398;7.614;2023-03-13T19:42:49;1.42;;;0.60;;
50569;SDS011;36525;49.398;7.614;2023-03-13T19:45:16;2.58;;;0.85;;
50569;SDS011;36525;49.398;7.614;2023-03-13T19:47:45;1.75;;;0.60;;
50569;SDS011;36525;49.398;7.614;2023-03-13T19:50:20;3.60;;;0.60;;
50569;SDS011;36525;49.398;7.614;2023-03-13T19:52:52;2.05;;;0.60;;
50569;SDS011;36525;49.398;7.614;2023-03-13T19:55:20;2.58;;;0.50;;
50569;SDS011;36525;49.398;7.614;2023-03-13T19:57:46;2.80;;;0.60;;
50569;SDS011;36525;49.398;7.614;2023-03-13T20:00:18;2.28;;;0.60;;
50569;SDS011;36525;49.398;7.614;2023-03-13T20:02:49;4.18;;;0.70;;
50569;SDS011;36525;49.398;7.614;2023-03-13T20:05:21;3.55;;;1.00;;
50569;SDS011;36525;49.398;7.614;2023-03-13T20:07:49;6.70;;;1.13;;
50569;SDS011;36525;49.398;7.614;2023-03-13T20:10:18;8.63;;;3.05;;
50569;SDS011;36525;49.398;7.614;2023-03-13T20:12:47;8.05;;;3.38;;
50569;SDS011;36525;49.398;7.614;2023-03-13T20:15:14;10.38;;;4.63;;
50569;SDS011;36525;49.398;7.614;2023-03-13T20:17:41;7.38;;;3.55;;
50569;SDS011;36525;49.398;7.614;2023-03-13T20:20:08;1.88;;;0.95;;
50569;SDS011;36525;49.398;7.614;2023-03-13T20:22:36;3.15;;;0.88;;
50569;SDS011;36525;49.398;7.614;2023-03-13T20:25:03;3.40;;;0.90;;
50569;SDS011;36525;49.398;7.614;2023-03-13T20:27:31;1.95;;;0.93;;
50569;SDS011;36525;49.398;7.614;2023-03-13T20:29:58;3.75;;;1.63;;
50569;SDS011;36525;49.398;7.614;2023-03-13T20:32:26;3.05;;;1.30;;
50569;SDS011;36525;49.398;7.614;2023-03-13T20:34:53;2.58;;;0.80;;
50569;SDS011;36525;49.398;7.614;2023-03-13T20:37:20;1.80;;;0.70;;
50569;SDS011;36525;49.398;7.614;2023-03-13T20:39:47;5.13;;;0.75;;
50569;SDS011;36525;49.398;7.614;2023-03-13T20:42:14;1.95;;;0.70;;
50569;SDS011;36525;49.398;7.614;2023-03-13T20:44:41;2.20;;;0.63;;
50569;SDS011;36525;49.398;7.614;2023-03-13T20:47:08;3.80;;;0.60;;
50569;SDS011;36525;49.398;7.614;2023-03-13T20:49:35;3.25;;;0.50;;
50569;SDS011;36525;49.398;7.614;2023-03-13T20:52:03;2.63;;;0.63;;
50569;SDS011;36525;49.398;7.614;2023-03-13T20:54:30;1.77;;;0.70;;
50569;SDS011;36525;49.398;7.614;2023-03-13T20:56:57;3.65;;;0.70;;
50569;SDS011;36525;49.398;7.614;2023-03-13T20:59:24;2.95;;;0.88;;
50569;SDS011;36525;49.398;7.614;2023-03-13T21:01:51;1.67;;;0.70;;
50569;SDS011;36525;49.398;7.614;2023-03-13T21:04:18;2.22;;;0.70;;
50569;SDS011;36525;49.398;7.614;2023-03-13T21:06:45;1.98;;;0.82;;
50569;SDS011;36525;49.398;7.614;2023-03-13T21:09:13;3.38;;;0.70;;
50569;SDS011;36525;49.398;7.614;2023-03-13T21:11:40;3.35;;;0.90;;
50569;SDS011;36525;49.398;7.614;2023-03-13T21:14:07;1.48;;;0.57;;
50569;SDS011;36525;49.398;7.614;2023-03-13T21:16:34;2.10;;;0.50;;
50569;SDS011;36525;49.398;7.614;2023-03-13T21:19:01;2.03;;;0.80;;
50569;SDS011;36525;49.398;7.614;2023-03-13T21:21:28;1.98;;;0.75;;
50569;SDS011;36525;49.398;7.614;2023-03-13T21:23:55;3.70;;;0.60;;
50569;SDS011;36525;49.398;7.614;2023-03-13T21:26:22;2.45;;;0.88;;
50569;SDS011;36525;49.398;7.614;2023-03-13T21:28:49;1.75;;;0.60;;
50569;SDS011;36525;49.398;7.614;2023-03-13T21:31:18;3.45;;;0.65;;
50569;SDS011;36525;49.398;7.614;2023-03-13T21:33:45;3.75;;;0.60;;
50569;SDS011;36525;49.398;7.614;2023-03-13T21:36:15;2.47;;;0.70;;
50569;SDS011;36525;49.398;7.614;2023-03-13T21:38:46;2.58;;;0.60;;
50569;SDS011;36525;49.398;7.614;2023-03-13T21:41:16;2.40;;;0.70;;
50569;SDS011;36525;49.398;7.614;2023-03-13T21:43:46;2.05;;;0.50;;
50569;SDS011;36525;49.398;7.614;2023-03-13T21:46:14;1.70;;;0.70;;
50569;SDS011;36525;49.398;7.614;2023-03-13T21:48:43;1.50;;;0.70;;
50569;SDS011;36525;49.398;7.614;2023-03-13T21:51:16;3.90;;;0.70;;
50569;SDS011;36525;49.398;7.614;2023-03-13T21:53:43;1.52;;;0.70;;
50569;SDS011;36525;49.398;7.614;2023-03-13T21:56:10;1.73;;;0.60;;
50569;SDS011;36525;49.398;7.614;2023-03-13T21:58:42;1.50;;;0.60;;
50569;SDS011;36525;49.398;7.614;2023-03-13T22:01:13;3.00;;;0.60;;
50569;SDS011;36525;49.398;7.614;2023-03-13T22:03:41;3.00;;;0.60;;
50569;SDS011;36525;49.398;7.614;2023-03-13T22:06:16;1.88;;;0.70;;
50569;SDS011;36525;49.398;7.614;2023-03-13T22:08:46;2.58;;;0.60;;
50569;SDS011;36525;49.398;7.614;2023-03-13T22:11:14;2.88;;;0.50;;
50569;SDS011;36525;49.398;7.614;2023-03-13T22:13:41;3.17;;;0.95;;
50569;SDS011;36525;49.398;7.614;2023-03-13T22:16:09;3.13;;;0.93;;
50569;SDS011;36525;49.398;7.614;2023-03-13T22:18:37;1.75;;;0.60;;
50569;SDS011;36525;49.398;7.614;2023-03-13T22:21:05;1.48;;;0.60;;
50569;SDS011;36525;49.398;7.614;2023-03-13T22:23:33;1.98;;;0.70;;
50569;SDS011;36525;49.398;7.614;2023-03-13T22:26:00;2.42;;;0.70;;
50569;SDS011;36525;49.398;7.614;2023-03-13T22:28:27;1.77;;;0.60;;
50569;SDS011;36525;49.398;7.614;2023-03-13T22:30:54;3.85;;;0.70;;
50569;SDS011;36525;49.398;7.614;2023-03-13T22:33:21;4.68;;;0.90;;
50569;SDS011;36525;49.398;7.614;2023-03-13T22:35:49;2.15;;;0.70;;
50569;SDS011;36525;49.398;7.614;2023-03-13T22:38:19;1.55;;;0.65;;
50569;SDS011;36525;49.398;7.614;2023-03-13T22:40:47;4.03;;;1.00;;
50569;SDS011;36525;49.398;7.614;2023-03-13T22:43:28;3.45;;;0.70;;
50569;SDS011;36525;49.398;7.614;2023-03-13T22:45:59;5.07;;;0.95;;
50569;SDS011;36525;49.398;7.614;2023-03-13T22:48:30;2.47;;;0.70;;
50569;SDS011;36525;49.398;7.614;2023-03-13T22:53:34;5.97;;;1.00;;
50569;SDS011;36525;49.398;7.614;2023-03-13T22:56:03;5.05;;;1.00;;
50569;SDS011;36525;49.398;7.614;2023-03-13T22:58:32;7.07;;;0.98;;
50569;SDS011;36525;49.398;7.614;2023-03-13T23:01:13;5.30;;;1.10;;
50569;SDS011;36525;49.398;7.614;2023-03-13T23:03:43;6.07;;;0.95;;
50569;SDS011;36525;49.398;7.614;2023-03-13T23:06:15;5.20;;;1.63;;
50569;SDS011;36525;49.398;7.614;2023-03-13T23:08:45;6.05;;;1.55;;
50569;SDS011;36525;49.398;7.614;2023-03-13T23:11:12;4.40;;;1.00;;
50569;SDS011;36525;49.398;7.614;2023-03-13T23:13:40;5.38;;;0.88;;
50569;SDS011;36525;49.398;7.614;2023-03-13T23:16:07;5.50;;;0.85;;
50569;SDS011;36525;49.398;7.614;2023-03-13T23:18:37;2.97;;;0.80;;
50569;SDS011;36525;49.398;7.614;2023-03-13T23:21:06;5.07;;;1.40;;
50569;SDS011;36525;49.398;7.614;2023-03-13T23:23:36;6.28;;;1.75;;
50569;SDS011;36525;49.398;7.614;2023-03-13T23:26:04;4.43;;;1.10;;
50569;SDS011;36525;49.398;7.614;2023-03-13T23:28:35;4.93;;;1.02;;
50569;SDS011;36525;49.398;7.614;2023-03-13T23:31:10;3.38;;;0.80;;
50569;SDS011;36525;49.398;7.614;2023-03-13T23:33:41;3.17;;;1.10;;
50569;SDS011;36525;49.398;7.614;2023-03-13T23:36:15;4.45;;;1.02;;
50569;SDS011;36525;49.398;7.614;2023-03-13T23:38:47;4.15;;;0.73;;
50569;SDS011;36525;49.398;7.614;2023-03-13T23:41:16;5.93;;;0.85;;
50569;SDS011;36525;49.398;7.614;2023-03-13T23:43:44;4.70;;;0.98;;
50569;SDS011;36525;49.398;7.614;2023-03-13T23:46:15;4.28;;;1.13;;
50569;SDS011;36525;49.398;7.614;2023-03-13T23:48:50;5.45;;;1.15;;
50569;SDS011;36525;49.398;7.614;2023-03-13T23:51:22;6.95;;;1.00;;
50569;SDS011;36525;49.398;7.614;2023-03-13T23:53:50;5.82;;;1.08;;
50569;SDS011;36525;49.398;7.614;2023-03-13T23:56:17;4.95;;;1.40;;
50569;SDS011;36525;49.398;7.614;2023-03-13T23:58:44;5.57;;;1.02;;
